createdAt,value
2024-03-12T00:00:13.595Z,73.97
2024-03-12T00:01:13.758Z,72.67
2024-03-12T00:02:13.606Z,71.99
2024-03-12T00:03:13.613Z,71.07
2024-03-12T00:04:13.679Z,71.79
2024-03-12T00:05:13.645Z,69.96
2024-03-12T00:06:13.632Z,69.41
2024-03-12T00:07:13.667Z,69.63
2024-03-12T00:08:13.634Z,68.40
2024-03-12T00:09:13.628Z,71.13
2024-03-12T00:10:13.667Z,69.94
2024-03-12T00:11:13.647Z,70.13
2024-03-12T00:12:13.625Z,68.73
2024-03-12T00:13:13.666Z,70.18
2024-03-12T00:14:13.634Z,69.35
2024-03-12T00:15:13.625Z,66.62
2024-03-12T00:16:13.658Z,69.87
2024-03-12T00:17:13.662Z,67.91
2024-03-12T00:18:13.663Z,68.14
2024-03-12T00:19:13.737Z,65.79
2024-03-12T00:20:13.633Z,66.51
2024-03-12T00:21:13.641Z,67.61
2024-03-12T00:22:13.714Z,67.68
2024-03-12T00:23:13.650Z,66.08
2024-03-12T00:24:13.626Z,66.63
2024-03-12T00:25:13.621Z,64.50
2024-03-12T00:26:13.620Z,64.62
2024-03-12T00:27:13.625Z,65.56
2024-03-12T00:28:13.694Z,63.59
2024-03-12T00:29:13.659Z,63.62
2024-03-12T00:30:13.619Z,63.23
2024-03-12T00:31:13.644Z,62.49
2024-03-12T00:32:13.629Z,62.91
2024-03-12T00:33:13.877Z,60.41
2024-03-12T00:34:13.644Z,62.84
2024-03-12T00:35:13.608Z,62.41
2024-03-12T00:36:13.610Z,62.17
2024-03-12T00:37:13.655Z,61.09
2024-03-12T00:38:13.611Z,61.29
2024-03-12T00:39:13.613Z,60.34
2024-03-12T00:40:13.712Z,61.35
2024-03-12T00:41:13.603Z,62.61
2024-03-12T00:42:13.621Z,62.98
2024-03-12T00:43:13.758Z,60.44
2024-03-12T00:44:13.722Z,61.63
2024-03-12T00:45:13.713Z,60.96
2024-03-12T00:46:13.865Z,60.93
2024-03-12T00:47:13.777Z,61.31
2024-03-12T00:48:13.906Z,60.98
2024-03-12T00:49:13.881Z,62.42
2024-03-12T00:50:13.899Z,61.87
2024-03-12T00:51:13.885Z,61.92
2024-03-12T00:52:13.866Z,60.49
2024-03-12T00:53:13.873Z,61.96
2024-03-12T00:54:13.870Z,61.09
2024-03-12T00:55:13.880Z,62.05
2024-03-12T00:56:13.874Z,61.70
2024-03-12T00:57:13.856Z,62.69
2024-03-12T00:58:14.015Z,61.78
2024-03-12T00:59:13.857Z,61.52
2024-03-12T01:00:13.840Z,63.77
2024-03-12T01:01:13.895Z,62.66
2024-03-12T01:02:13.851Z,63.07
2024-03-12T01:03:13.838Z,63.48
2024-03-12T01:04:13.875Z,63.04
2024-03-12T01:05:13.839Z,63.84
2024-03-12T01:06:13.824Z,61.98
2024-03-12T01:07:13.836Z,63.94
2024-03-12T01:08:13.937Z,64.42
2024-03-12T01:09:13.873Z,64.74
2024-03-12T01:10:13.952Z,65.31
2024-03-12T01:11:13.990Z,65.54
2024-03-12T01:12:13.989Z,65.35
2024-03-12T01:13:14.059Z,64.36
2024-03-12T01:14:14.063Z,66.12
2024-03-12T01:15:14.074Z,66.98
2024-03-12T01:16:14.222Z,65.24
2024-03-12T01:17:14.143Z,67.37
2024-03-12T01:18:14.207Z,66.30
2024-03-12T01:19:14.213Z,67.71
2024-03-12T01:20:14.254Z,67.47
2024-03-12T01:21:14.305Z,66.50
2024-03-12T01:22:14.319Z,67.27
2024-03-12T01:23:14.329Z,67.47
2024-03-12T01:24:14.383Z,67.42
2024-03-12T01:25:14.434Z,69.28
2024-03-12T01:26:14.418Z,68.27
2024-03-12T01:27:14.459Z,66.09
2024-03-12T01:28:14.517Z,68.66
2024-03-12T01:29:14.535Z,68.93
2024-03-12T01:30:14.545Z,68.75
2024-03-12T01:31:14.570Z,69.02
2024-03-12T01:32:14.530Z,69.90
2024-03-12T01:33:14.564Z,69.57
2024-03-12T01:34:14.646Z,69.70
2024-03-12T01:35:14.546Z,72.78
2024-03-12T01:36:14.562Z,70.54
2024-03-12T01:37:14.624Z,69.54
2024-03-12T01:38:14.551Z,70.36
2024-03-12T01:39:14.548Z,72.08
2024-03-12T01:40:14.577Z,71.10
2024-03-12T01:41:14.579Z,72.17
2024-03-12T01:42:14.578Z,73.28
2024-03-12T01:43:14.836Z,73.23
2024-03-12T01:44:14.582Z,73.68
2024-03-12T01:45:14.579Z,73.14
2024-03-12T01:46:14.575Z,72.79
2024-03-12T01:47:14.555Z,72.83
2024-03-12T01:48:14.571Z,73.13
2024-03-12T01:49:14.564Z,73.81
2024-03-12T01:50:14.573Z,74.47
2024-03-12T01:51:14.551Z,75.56
2024-03-12T01:52:14.563Z,75.06
2024-03-12T01:53:14.587Z,76.72
2024-03-12T01:54:14.562Z,75.61
2024-03-12T01:55:14.561Z,75.40
2024-03-12T01:56:14.568Z,79.33
2024-03-12T01:57:14.546Z,78.45
2024-03-12T01:58:14.620Z,78.82
2024-03-12T01:59:14.553Z,78.04
2024-03-12T02:00:14.752Z,78.37
2024-03-12T02:01:14.560Z,80.83
2024-03-12T02:02:14.540Z,82.16
2024-03-12T02:03:14.547Z,80.91
2024-03-12T02:04:14.534Z,81.11
2024-03-12T02:05:14.551Z,81.06
2024-03-12T02:06:14.552Z,82.73
2024-03-12T02:07:14.633Z,83.96
2024-03-12T02:08:14.599Z,81.39
2024-03-12T02:09:14.646Z,83.17
2024-03-12T02:10:14.668Z,83.70
2024-03-12T02:11:14.718Z,84.91
2024-03-12T02:12:14.704Z,85.95
2024-03-12T02:13:14.797Z,85.04
2024-03-12T02:14:14.756Z,82.62
2024-03-12T02:15:14.776Z,84.72
2024-03-12T02:16:14.869Z,85.61
2024-03-12T02:17:14.837Z,84.53
2024-03-12T02:18:14.922Z,85.43
2024-03-12T02:19:14.882Z,84.81
2024-03-12T02:20:14.913Z,85.37
2024-03-12T02:21:14.941Z,84.41
2024-03-12T02:22:14.975Z,84.32
2024-03-12T02:23:15.026Z,82.71
2024-03-12T02:24:15.045Z,84.95
2024-03-12T02:25:15.094Z,84.48
2024-03-12T02:26:15.127Z,85.65
2024-03-12T02:27:15.167Z,87.08
2024-03-12T02:28:15.234Z,86.18
2024-03-12T02:29:15.254Z,86.31
2024-03-12T02:30:15.331Z,86.96
2024-03-12T02:31:15.377Z,85.66
2024-03-12T02:32:15.333Z,88.44
2024-03-12T02:33:15.474Z,86.58
2024-03-12T02:34:15.396Z,87.27
2024-03-12T02:35:15.419Z,87.75
2024-03-12T02:36:15.478Z,86.90
2024-03-12T02:37:15.494Z,86.68
2024-03-12T02:38:15.537Z,87.31
2024-03-12T02:39:15.723Z,86.52
2024-03-12T02:40:16.781Z,87.16
2024-03-12T02:41:15.662Z,88.10
2024-03-12T02:42:15.679Z,86.99
2024-03-12T02:43:15.764Z,87.25
2024-03-12T02:44:15.765Z,88.85
2024-03-12T02:45:16.901Z,88.04
2024-03-12T02:46:15.923Z,87.42
2024-03-12T02:47:15.895Z,89.74
2024-03-12T02:48:15.936Z,88.36
2024-03-12T02:49:15.982Z,86.74
2024-03-12T02:50:16.028Z,90.36
2024-03-12T02:51:16.041Z,90.31
2024-03-12T02:52:16.087Z,88.18
2024-03-12T02:53:16.154Z,89.13
2024-03-12T02:54:16.177Z,90.53
2024-03-12T02:55:16.302Z,90.18
2024-03-12T02:56:16.259Z,89.30
2024-03-12T02:57:16.337Z,90.58
2024-03-12T02:58:16.380Z,88.81
2024-03-12T02:59:16.385Z,90.39
2024-03-12T03:00:16.717Z,90.65
2024-03-12T03:01:16.530Z,90.36
2024-03-12T03:02:16.502Z,88.87
2024-03-12T03:03:16.547Z,90.08
2024-03-12T03:04:16.594Z,90.71
2024-03-12T03:05:16.682Z,90.88
2024-03-12T03:06:16.667Z,88.26
2024-03-12T03:07:16.707Z,90.33
2024-03-12T03:08:16.750Z,88.99
2024-03-12T03:09:16.770Z,90.91
2024-03-12T03:10:16.888Z,91.74
2024-03-12T03:11:16.873Z,90.35
2024-03-12T03:12:16.880Z,92.07
2024-03-12T03:13:16.940Z,91.83
2024-03-12T03:14:16.958Z,91.57
2024-03-12T03:15:17.000Z,89.63
2024-03-12T03:16:17.021Z,91.80
2024-03-12T03:17:17.063Z,89.61
2024-03-12T03:18:17.192Z,92.15
2024-03-12T03:19:17.138Z,90.16
2024-03-12T03:20:17.249Z,90.70
2024-03-12T03:21:17.199Z,90.46
2024-03-12T03:22:17.310Z,83.36
2024-03-12T03:23:17.229Z,78.72
2024-03-12T03:24:17.247Z,67.72
2024-03-12T03:25:17.337Z,62.03
2024-03-12T03:26:17.255Z,55.14
2024-03-12T03:27:17.298Z,49.56
2024-03-12T03:28:17.302Z,50.00
2024-03-12T03:29:17.346Z,50.40
2024-03-12T03:30:17.384Z,49.32
2024-03-12T03:31:17.475Z,50.74
2024-03-12T03:32:17.519Z,48.69
2024-03-12T03:33:17.601Z,50.00
2024-03-12T03:34:17.782Z,50.32
2024-03-12T03:35:17.721Z,50.49
2024-03-12T03:36:17.804Z,50.29
2024-03-12T03:37:17.885Z,51.00
2024-03-12T03:38:17.935Z,51.21
2024-03-12T03:39:18.023Z,50.43
2024-03-12T03:40:18.090Z,50.00
2024-03-12T03:41:18.098Z,50.22
2024-03-12T03:42:18.113Z,50.16
2024-03-12T03:43:18.140Z,50.00
2024-03-12T03:44:18.175Z,50.00
2024-03-12T03:45:18.184Z,50.10
2024-03-12T03:46:18.190Z,49.45
2024-03-12T03:47:18.242Z,50.00
2024-03-12T03:48:18.253Z,49.88
2024-03-12T03:49:18.287Z,49.06
2024-03-12T03:50:18.320Z,49.85
2024-03-12T03:51:18.384Z,50.82
2024-03-12T03:52:18.393Z,50.37
2024-03-12T03:53:18.429Z,52.89
2024-03-12T03:54:18.482Z,48.74
2024-03-12T03:55:18.595Z,50.95
2024-03-12T03:56:18.553Z,50.38
2024-03-12T03:57:18.601Z,49.28
2024-03-12T03:58:18.645Z,50.00
2024-03-12T03:59:18.708Z,51.13
2024-03-12T04:00:18.743Z,50.94
2024-03-12T04:01:18.846Z,50.00
2024-03-12T04:02:18.849Z,50.98
2024-03-12T04:03:18.918Z,50.43
2024-03-12T04:04:18.988Z,52.29
2024-03-12T04:05:19.026Z,49.63
2024-03-12T04:06:19.095Z,52.11
2024-03-12T04:07:19.171Z,51.59
2024-03-12T04:08:19.257Z,50.00
2024-03-12T04:09:19.303Z,51.31
2024-03-12T04:10:19.583Z,50.00
2024-03-12T04:11:19.500Z,50.00
2024-03-12T04:12:19.552Z,51.49
2024-03-12T04:13:19.636Z,50.99
2024-03-12T04:14:19.749Z,50.73
2024-03-12T04:15:19.733Z,50.00
2024-03-12T04:16:19.819Z,51.25
2024-03-12T04:17:19.884Z,52.69
2024-03-12T04:18:20.139Z,53.25
2024-03-12T04:19:20.090Z,53.27
2024-03-12T04:20:20.130Z,51.78
2024-03-12T04:21:20.199Z,52.28
2024-03-12T04:22:20.292Z,54.03
2024-03-12T04:23:20.367Z,54.97
2024-03-12T04:24:20.451Z,53.12
2024-03-12T04:25:20.529Z,57.54
2024-03-12T04:26:20.623Z,55.81
2024-03-12T04:27:20.736Z,55.88
2024-03-12T04:28:20.891Z,58.66
2024-03-12T04:29:20.882Z,57.33
2024-03-12T04:30:20.957Z,62.98
2024-03-12T04:31:21.035Z,61.97
2024-03-12T04:32:21.136Z,60.75
2024-03-12T04:33:21.237Z,59.87
2024-03-12T04:34:21.290Z,61.23
2024-03-12T04:35:28.584Z,50.00
2024-03-12T04:36:28.626Z,50.00
2024-03-12T04:37:28.602Z,50.00
2024-03-12T04:38:28.601Z,50.00
2024-03-12T04:39:28.644Z,50.00
2024-03-12T04:40:28.684Z,51.37
2024-03-12T04:41:28.616Z,53.48
2024-03-12T04:42:28.700Z,54.74
2024-03-12T04:43:28.640Z,55.14
2024-03-12T04:44:28.656Z,54.32
2024-03-12T04:45:28.684Z,57.68
2024-03-12T04:46:28.662Z,57.09
2024-03-12T04:47:28.739Z,59.66
2024-03-12T04:48:28.790Z,61.29
2024-03-12T04:49:28.699Z,63.33
2024-03-12T04:50:28.698Z,63.65
2024-03-12T04:51:28.718Z,65.04
2024-03-12T04:52:28.723Z,66.70
2024-03-12T04:53:28.725Z,66.95
2024-03-12T04:54:28.764Z,68.87
2024-03-12T04:55:28.735Z,66.96
2024-03-12T04:56:28.738Z,68.71
2024-03-12T04:57:28.766Z,67.76
2024-03-12T04:58:28.749Z,69.18
2024-03-12T04:59:28.778Z,69.33
2024-03-12T05:00:32.392Z,67.06
2024-03-12T05:01:28.855Z,65.20
2024-03-12T05:02:28.787Z,68.60
2024-03-12T05:03:28.812Z,68.17
2024-03-12T05:04:28.823Z,67.16
2024-03-12T05:05:28.795Z,70.33
2024-03-12T05:06:28.797Z,69.33
2024-03-12T05:07:28.788Z,70.52
2024-03-12T05:08:28.840Z,67.63
2024-03-12T05:09:28.824Z,64.97
2024-03-12T05:10:28.804Z,63.12
2024-03-12T05:11:28.828Z,63.50
2024-03-12T05:12:28.831Z,58.04
2024-03-12T05:13:28.826Z,56.99
2024-03-12T05:14:28.838Z,57.01
2024-03-12T05:15:28.934Z,53.99
2024-03-12T05:16:28.869Z,52.94
2024-03-12T05:17:28.870Z,52.86
2024-03-12T05:18:28.899Z,48.70
2024-03-12T05:19:28.866Z,49.84
2024-03-12T05:20:28.923Z,49.88
2024-03-12T05:21:31.471Z,48.21
2024-03-12T05:22:28.891Z,44.13
2024-03-12T05:23:28.890Z,41.79
2024-03-12T05:24:28.921Z,50.01
2024-03-12T05:25:28.898Z,53.04
2024-03-12T05:26:28.906Z,51.45
2024-03-12T05:27:28.936Z,52.82
2024-03-12T05:28:28.931Z,50.43
2024-03-12T05:29:28.925Z,51.15
2024-03-12T05:30:28.945Z,50.06
2024-03-12T05:31:28.936Z,51.42
2024-03-12T05:32:28.952Z,54.49
2024-03-12T05:33:28.961Z,51.72
2024-03-12T05:34:28.966Z,53.06
2024-03-12T05:35:28.960Z,53.08
2024-03-12T05:36:28.966Z,53.66
2024-03-12T05:37:28.981Z,54.42
2024-03-12T05:38:28.960Z,53.30
2024-03-12T05:39:29.032Z,54.20
2024-03-12T05:40:28.968Z,55.31
2024-03-12T05:41:28.974Z,56.40
2024-03-12T05:42:28.993Z,57.88
2024-03-12T05:43:28.987Z,57.27
2024-03-12T05:44:28.987Z,58.85
2024-03-12T05:45:29.083Z,59.02
2024-03-12T05:46:29.091Z,59.19
2024-03-12T05:47:29.029Z,60.70
2024-03-12T05:48:29.026Z,59.06
2024-03-12T05:49:29.038Z,59.80
2024-03-12T05:50:29.039Z,61.81
2024-03-12T05:51:29.096Z,63.51
2024-03-12T05:52:29.176Z,59.15
2024-03-12T05:53:29.055Z,60.66
2024-03-12T05:54:29.080Z,64.14
2024-03-12T05:55:29.062Z,67.70
2024-03-12T05:56:29.068Z,74.54
2024-03-12T05:57:29.094Z,81.77
2024-03-12T05:58:29.079Z,85.22
2024-03-12T05:59:29.107Z,88.01
2024-03-12T06:00:29.223Z,93.63
2024-03-12T06:01:30.173Z,94.54
2024-03-12T06:02:29.148Z,93.82
2024-03-12T06:03:29.150Z,93.84
2024-03-12T06:04:29.142Z,94.34
2024-03-12T06:05:29.161Z,95.37
2024-03-12T06:06:29.200Z,96.12
2024-03-12T06:07:29.208Z,97.16
2024-03-12T06:08:29.217Z,94.31
2024-03-12T06:09:29.196Z,93.89
2024-03-12T06:10:29.186Z,88.91
2024-03-12T06:11:29.261Z,89.49
2024-03-12T06:12:29.202Z,84.00
2024-03-12T06:13:29.177Z,82.11
2024-03-12T06:14:29.195Z,75.70
2024-03-12T06:15:29.214Z,74.04
2024-03-12T06:16:29.188Z,70.81
2024-03-12T06:17:29.191Z,72.79
2024-03-12T06:18:29.341Z,69.84
2024-03-12T06:19:29.217Z,66.37
2024-03-12T06:20:29.195Z,65.65
2024-03-12T06:21:29.235Z,65.83
2024-03-12T06:22:29.209Z,61.63
2024-03-12T06:23:29.215Z,63.89
2024-03-12T06:24:29.282Z,63.66
2024-03-12T06:25:29.252Z,61.64
2024-03-12T06:26:29.253Z,59.48
2024-03-12T06:27:29.284Z,58.64
2024-03-12T06:28:29.320Z,59.81
2024-03-12T06:29:29.253Z,60.38
2024-03-12T06:30:29.322Z,62.58
2024-03-12T06:31:29.271Z,60.94
2024-03-12T06:32:29.315Z,64.73
2024-03-12T06:33:29.331Z,71.61
2024-03-12T06:34:29.342Z,83.18
2024-03-12T06:35:29.343Z,83.86
2024-03-12T06:36:29.355Z,88.26
2024-03-12T06:37:29.328Z,100.02
2024-03-12T06:38:29.327Z,122.24
2024-03-12T06:39:29.377Z,159.62
2024-03-12T06:40:29.355Z,176.68
2024-03-12T06:41:29.342Z,193.41
2024-03-12T06:42:29.359Z,200.27
2024-03-12T06:43:29.333Z,200.70
2024-03-12T06:44:29.323Z,199.85
2024-03-12T06:45:29.416Z,200.25
2024-03-12T06:46:29.326Z,203.05
2024-03-12T06:47:29.331Z,211.26
2024-03-12T06:48:29.324Z,224.22
2024-03-12T06:49:29.306Z,245.03
2024-03-12T06:50:29.316Z,234.67
2024-03-12T06:51:29.343Z,224.06
2024-03-12T06:52:29.296Z,215.28
2024-03-12T06:53:29.292Z,205.21
2024-03-12T06:54:29.355Z,199.05
2024-03-12T06:55:29.365Z,199.49
2024-03-12T06:56:29.324Z,201.50
2024-03-12T06:57:29.326Z,202.86
2024-03-12T06:58:29.383Z,200.00
2024-03-12T06:59:29.502Z,200.00
2024-03-12T07:00:29.329Z,200.00
2024-03-12T07:01:29.343Z,200.00
2024-03-12T07:02:29.297Z,200.04
2024-03-12T07:03:29.345Z,200.21
2024-03-12T07:04:29.313Z,200.00
2024-03-12T07:05:29.276Z,200.00
2024-03-12T07:06:29.300Z,199.87
2024-03-12T07:07:29.258Z,199.99
2024-03-12T07:08:29.259Z,200.20
2024-03-12T07:09:29.252Z,200.00
2024-03-12T07:10:29.275Z,200.70
2024-03-12T07:11:29.294Z,200.00
2024-03-12T07:12:29.281Z,200.00
2024-03-12T07:13:29.279Z,200.00
2024-03-12T07:14:29.362Z,200.00
2024-03-12T07:15:29.501Z,199.84
2024-03-12T07:16:29.478Z,200.00
2024-03-12T07:17:31.629Z,200.00
2024-03-12T07:18:29.615Z,199.55
2024-03-12T07:19:29.648Z,199.89
2024-03-12T07:20:29.687Z,200.00
2024-03-12T07:21:29.702Z,200.07
2024-03-12T07:22:29.670Z,200.38
2024-03-12T07:23:29.659Z,201.47
2024-03-12T07:24:29.686Z,203.16
2024-03-12T07:25:29.655Z,205.76
2024-03-12T07:26:29.640Z,201.75
2024-03-12T07:27:29.684Z,199.71
2024-03-12T07:28:29.670Z,200.00
2024-03-12T07:29:29.616Z,199.36
2024-03-12T07:30:29.656Z,199.58
2024-03-12T07:31:29.587Z,200.00
2024-03-12T07:32:29.677Z,199.66
2024-03-12T07:33:29.701Z,199.98
2024-03-12T07:34:29.770Z,200.00
2024-03-12T07:35:29.738Z,199.71
2024-03-12T07:36:29.788Z,199.85
2024-03-12T07:37:29.788Z,200.00
2024-03-12T07:38:29.834Z,198.93
2024-03-12T07:39:29.891Z,197.69
2024-03-12T07:40:29.908Z,196.77
2024-03-12T07:41:29.884Z,196.00
2024-03-12T07:42:29.909Z,193.94
2024-03-12T07:43:29.859Z,192.72
2024-03-12T07:44:29.983Z,191.40
2024-03-12T07:45:29.886Z,189.94
2024-03-12T07:46:29.839Z,188.41
2024-03-12T07:47:29.911Z,186.71
2024-03-12T07:48:29.842Z,184.32
2024-03-12T07:49:29.820Z,182.97
2024-03-12T07:50:29.978Z,181.91
2024-03-12T07:51:29.844Z,180.27
2024-03-12T07:52:29.785Z,178.06
2024-03-12T07:53:29.772Z,177.56
2024-03-12T07:54:29.777Z,176.44
2024-03-12T07:55:29.750Z,175.53
2024-03-12T07:56:29.766Z,174.00
2024-03-12T07:57:29.755Z,173.14
2024-03-12T07:58:29.746Z,171.39
2024-03-12T07:59:29.792Z,169.79
2024-03-12T08:00:29.767Z,168.81
2024-03-12T08:01:29.714Z,167.37
2024-03-12T08:02:29.713Z,166.16
2024-03-12T08:03:29.970Z,165.11
2024-03-12T08:04:29.824Z,162.78
2024-03-12T08:05:33.018Z,162.44
2024-03-12T08:06:30.970Z,161.13
2024-03-12T08:07:29.866Z,159.09
2024-03-12T08:08:29.849Z,158.45
2024-03-12T08:09:30.018Z,157.00
2024-03-12T08:10:29.838Z,155.05
2024-03-12T08:11:29.877Z,154.17
2024-03-12T08:12:29.859Z,152.80
2024-03-12T08:13:29.864Z,152.15
2024-03-12T08:14:29.830Z,150.37
2024-03-12T08:15:29.895Z,149.27
2024-03-12T08:16:29.941Z,146.91
2024-03-12T08:17:30.279Z,145.70
2024-03-12T08:18:30.122Z,145.15
2024-03-12T08:19:30.116Z,143.16
2024-03-12T08:20:30.158Z,142.34
2024-03-12T08:21:30.306Z,140.91
2024-03-12T08:22:30.291Z,139.96
2024-03-12T08:23:30.379Z,135.62
2024-03-12T08:24:30.427Z,131.99
2024-03-12T08:25:33.226Z,127.46
2024-03-12T08:26:31.483Z,124.00
2024-03-12T08:27:30.471Z,119.69
2024-03-12T08:28:30.435Z,115.79
2024-03-12T08:29:30.436Z,111.83
2024-03-12T08:30:33.397Z,108.13
2024-03-12T08:31:35.671Z,104.53
2024-03-12T08:32:31.779Z,101.86
2024-03-12T08:33:30.475Z,98.74
2024-03-12T08:34:30.431Z,95.97
2024-03-12T08:35:30.405Z,94.32
2024-03-12T08:36:30.472Z,93.15
2024-03-12T08:37:30.409Z,92.63
2024-03-12T08:38:30.420Z,92.17
2024-03-12T08:39:30.416Z,92.46
2024-03-12T08:40:30.477Z,90.62
2024-03-12T08:41:30.406Z,86.29
2024-03-12T08:42:30.485Z,81.59
2024-03-12T08:43:30.463Z,76.57
2024-03-12T08:44:30.466Z,72.27
2024-03-12T08:45:30.442Z,69.23
2024-03-12T08:46:30.422Z,65.93
2024-03-12T08:47:30.453Z,62.75
2024-03-12T08:48:30.479Z,60.12
2024-03-12T08:49:30.429Z,57.81
2024-03-12T08:50:30.476Z,55.30
2024-03-12T08:51:30.536Z,51.87
2024-03-12T08:52:30.441Z,50.00
2024-03-12T08:53:30.418Z,50.00
2024-03-12T08:54:30.509Z,49.89
2024-03-12T08:55:30.506Z,50.09
2024-03-12T08:56:30.445Z,50.11
2024-03-12T08:57:30.470Z,49.69
2024-03-12T08:58:30.447Z,50.38
2024-03-12T08:59:30.465Z,50.19
2024-03-12T09:00:30.683Z,50.11
2024-03-12T09:01:30.545Z,50.00
2024-03-12T09:02:30.483Z,50.00
2024-03-12T09:03:30.570Z,50.04
2024-03-12T09:04:30.565Z,50.04
2024-03-12T09:05:30.532Z,50.10
2024-03-12T09:06:30.613Z,49.81
2024-03-12T09:07:30.605Z,50.18
2024-03-12T09:08:30.657Z,50.68
2024-03-12T09:09:30.747Z,50.71
2024-03-12T09:10:30.760Z,50.51
2024-03-12T09:11:30.868Z,50.51
2024-03-12T09:12:30.875Z,50.67
2024-03-12T09:13:30.741Z,50.87
2024-03-12T09:14:30.747Z,50.77
2024-03-12T09:15:30.769Z,50.35
2024-03-12T09:16:30.762Z,50.63
2024-03-12T09:17:30.773Z,51.27
2024-03-12T09:18:30.806Z,50.36
2024-03-12T09:19:30.772Z,50.00
2024-03-12T09:20:30.810Z,51.59
2024-03-12T09:21:30.814Z,50.88
2024-03-12T09:22:30.801Z,50.17
2024-03-12T09:23:31.594Z,50.74
2024-03-12T09:24:30.850Z,52.02
2024-03-12T09:25:30.792Z,53.92
2024-03-12T09:26:31.108Z,55.60
2024-03-12T09:27:30.829Z,56.60
2024-03-12T09:28:30.798Z,58.38
2024-03-12T09:29:30.827Z,59.84
2024-03-12T09:30:30.878Z,59.91
2024-03-12T09:31:30.817Z,60.25
2024-03-12T09:32:30.831Z,60.80
2024-03-12T09:33:30.814Z,61.96
2024-03-12T09:34:30.797Z,62.29
2024-03-12T09:35:30.802Z,62.07
2024-03-12T09:36:30.818Z,61.23
2024-03-12T09:37:30.793Z,60.79
2024-03-12T09:38:30.868Z,59.78
2024-03-12T09:39:30.965Z,59.08
2024-03-12T09:40:31.045Z,57.87
2024-03-12T09:41:30.962Z,57.33
2024-03-12T09:42:31.014Z,56.42
2024-03-12T09:43:30.961Z,57.47
2024-03-12T09:44:30.962Z,57.36
2024-03-12T09:45:31.071Z,56.95
2024-03-12T09:46:30.933Z,55.99
2024-03-12T09:47:30.949Z,56.38
2024-03-12T09:48:30.969Z,55.39
2024-03-12T09:49:30.965Z,56.09
2024-03-12T09:50:30.939Z,56.01
2024-03-12T09:51:30.947Z,55.56
2024-03-12T09:52:30.958Z,58.02
2024-03-12T09:53:30.933Z,60.35
2024-03-12T09:54:30.949Z,62.64
2024-03-12T09:55:30.918Z,65.41
2024-03-12T09:56:30.898Z,68.36
2024-03-12T09:57:30.933Z,71.48
2024-03-12T09:58:30.898Z,74.62
2024-03-12T09:59:31.948Z,78.40
2024-03-12T10:00:30.949Z,82.17
2024-03-12T10:01:30.853Z,85.31
2024-03-12T10:02:30.888Z,87.72
2024-03-12T10:03:30.920Z,87.81
2024-03-12T10:04:30.841Z,88.56
2024-03-12T10:05:30.824Z,90.47
2024-03-12T10:06:30.941Z,94.34
2024-03-12T10:07:30.810Z,88.17
2024-03-12T10:08:30.779Z,90.08
2024-03-12T10:09:30.813Z,93.65
2024-03-12T10:10:30.745Z,105.34
2024-03-12T10:11:30.736Z,118.02
2024-03-12T10:12:30.712Z,120.04
2024-03-12T10:13:30.725Z,121.92
2024-03-12T10:14:30.677Z,123.14
2024-03-12T10:15:30.682Z,123.20
2024-03-12T10:16:30.673Z,123.52
2024-03-12T10:17:30.629Z,124.47
2024-03-12T10:18:30.673Z,125.79
2024-03-12T10:19:30.598Z,127.33
2024-03-12T10:20:30.584Z,127.81
2024-03-12T10:21:30.638Z,132.63
2024-03-12T10:22:30.544Z,146.38
2024-03-12T10:23:30.525Z,145.34
2024-03-12T10:24:30.633Z,143.57
2024-03-12T10:25:30.628Z,143.18
2024-03-12T10:26:30.691Z,142.29
2024-03-12T10:27:30.773Z,141.88
2024-03-12T10:28:30.812Z,140.47
2024-03-12T10:29:30.859Z,139.13
2024-03-12T10:30:30.890Z,138.02
2024-03-12T10:31:30.922Z,137.51
2024-03-12T10:32:31.119Z,136.73
2024-03-12T10:33:31.060Z,135.30
2024-03-12T10:34:31.007Z,134.36
2024-03-12T10:35:30.976Z,133.33
2024-03-12T10:36:31.015Z,133.49
2024-03-12T10:37:30.995Z,132.20
2024-03-12T10:38:30.933Z,130.81
2024-03-12T10:39:30.978Z,129.84
2024-03-12T10:40:31.017Z,129.59
2024-03-12T10:41:30.905Z,128.28
2024-03-12T10:42:30.918Z,127.26
2024-03-12T10:43:30.884Z,127.89
2024-03-12T10:44:30.882Z,127.51
2024-03-12T10:45:31.020Z,128.53
2024-03-12T10:46:30.976Z,129.27
2024-03-12T10:47:31.062Z,130.69
2024-03-12T10:48:31.066Z,131.29
2024-03-12T10:49:31.098Z,132.12
2024-03-12T10:50:31.140Z,132.97
2024-03-12T10:51:31.175Z,133.77
2024-03-12T10:52:31.157Z,135.10
2024-03-12T10:53:32.480Z,136.20
2024-03-12T10:54:34.416Z,136.78
2024-03-12T10:55:32.243Z,136.83
2024-03-12T10:56:31.200Z,137.16
2024-03-12T10:57:31.195Z,137.88
2024-03-12T10:58:31.164Z,139.68
2024-03-12T10:59:31.138Z,142.55
2024-03-12T11:00:31.164Z,144.14
2024-03-12T11:01:31.296Z,145.31
2024-03-12T11:02:31.107Z,145.80
2024-03-12T11:03:31.126Z,147.18
2024-03-12T11:04:31.070Z,147.98
2024-03-12T11:05:31.031Z,149.12
2024-03-12T11:06:31.136Z,149.80
2024-03-12T11:07:31.007Z,150.62
2024-03-12T11:08:31.006Z,151.23
2024-03-12T11:09:31.043Z,151.29
2024-03-12T11:10:31.007Z,150.95
2024-03-12T11:11:31.034Z,151.54
2024-03-12T11:12:30.985Z,152.33
2024-03-12T11:13:30.960Z,152.90
2024-03-12T11:14:30.988Z,153.44
2024-03-12T11:15:31.032Z,153.81
2024-03-12T11:16:31.039Z,154.64
2024-03-12T11:17:31.051Z,154.88
2024-03-12T11:18:31.096Z,155.08
2024-03-12T11:19:31.153Z,155.83
2024-03-12T11:20:31.118Z,155.81
2024-03-12T11:21:31.111Z,156.52
2024-03-12T11:22:31.152Z,156.65
2024-03-12T11:23:31.170Z,156.61
2024-03-12T11:24:31.594Z,156.62
2024-03-12T11:25:31.139Z,156.71
2024-03-12T11:27:31.175Z,157.75
2024-03-12T11:28:31.105Z,156.69
2024-03-12T11:29:31.083Z,157.06
2024-03-12T11:30:31.103Z,157.54
2024-03-12T11:31:31.078Z,158.72
2024-03-12T11:32:31.078Z,160.05
2024-03-12T11:33:31.058Z,160.24
2024-03-12T11:34:31.038Z,160.28
2024-03-12T11:35:31.003Z,160.58
2024-03-12T11:36:31.092Z,161.19
2024-03-12T11:37:30.994Z,161.98
2024-03-12T11:38:31.136Z,163.50
2024-03-12T11:39:31.171Z,163.27
2024-03-12T11:40:30.957Z,163.43
2024-03-12T11:41:30.990Z,163.16
2024-03-12T11:42:31.011Z,163.01
2024-03-12T11:43:30.924Z,162.93
2024-03-12T11:44:30.926Z,163.32
2024-03-12T11:45:30.901Z,163.06
2024-03-12T11:46:30.886Z,162.46
2024-03-12T11:47:30.952Z,162.05
2024-03-12T11:48:30.864Z,161.68
2024-03-12T11:49:30.832Z,161.86
2024-03-12T11:50:30.820Z,161.42
2024-03-12T11:51:30.868Z,161.80
2024-03-12T11:52:30.884Z,161.45
2024-03-12T11:53:31.034Z,161.58
2024-03-12T11:54:30.957Z,161.70
2024-03-12T11:55:30.969Z,161.32
2024-03-12T11:56:30.984Z,161.34
2024-03-12T11:57:31.368Z,161.38
2024-03-12T11:58:31.092Z,160.96
2024-03-12T11:59:31.102Z,161.02
2024-03-12T12:00:31.277Z,160.41
2024-03-12T12:01:31.288Z,160.63
2024-03-12T12:02:31.157Z,161.02
2024-03-12T12:03:31.214Z,160.01
2024-03-12T12:04:31.229Z,160.57
2024-03-12T12:05:31.237Z,160.11
2024-03-12T12:06:31.325Z,159.96
2024-03-12T12:07:31.371Z,160.27
2024-03-12T12:08:31.493Z,160.46
2024-03-12T12:09:31.387Z,160.50
2024-03-12T12:10:31.385Z,160.68
2024-03-12T12:11:31.421Z,160.77
2024-03-12T12:12:31.419Z,160.08
2024-03-12T12:13:31.424Z,160.12
2024-03-12T12:14:31.398Z,160.15
2024-03-12T12:15:31.412Z,160.35
2024-03-12T12:16:31.381Z,160.78
2024-03-12T12:17:31.380Z,161.57
2024-03-12T12:18:31.357Z,162.68
2024-03-12T12:19:35.547Z,162.38
2024-03-12T12:20:32.297Z,162.40
2024-03-12T12:21:31.348Z,162.57
2024-03-12T12:22:31.261Z,162.79
2024-03-12T12:23:31.258Z,163.41
2024-03-12T12:24:31.290Z,163.75
2024-03-12T12:25:31.274Z,164.45
2024-03-12T12:26:31.238Z,163.97
2024-03-12T12:27:31.234Z,164.61
2024-03-12T12:28:31.184Z,164.57
2024-03-12T12:29:31.169Z,164.57
2024-03-12T12:30:31.212Z,164.67
2024-03-12T12:31:31.132Z,164.71
2024-03-12T12:32:31.130Z,165.16
2024-03-12T12:33:31.184Z,165.17
2024-03-12T12:34:31.104Z,165.30
2024-03-12T12:35:31.074Z,165.34
2024-03-12T12:36:31.146Z,165.32
2024-03-12T12:37:31.052Z,165.50
2024-03-12T12:38:31.021Z,165.40
2024-03-12T12:39:40.277Z,165.98
2024-03-12T12:40:32.158Z,166.00
2024-03-12T12:41:30.994Z,166.07
2024-03-12T12:42:31.026Z,166.15
2024-03-12T12:43:30.978Z,166.46
2024-03-12T12:44:30.951Z,166.43